Time;durP1;ratioP1;P1;durP2;ratioP2;P2;SDS_P1;SDS_P2;PMS_P1;PMS_P2;Temp;Humidity;BMP_temperature;BMP_pressure;BME280_temperature;BME280_humidity;BME280_pressure;Samples;Min_cycle;Max_cycle;Signal;HPM_P1;HPM_P2
2022/01/08 00:02:20;;;;;;;0.40;0.40;;;1.80;99.90;;;;;;4431077;32;20069;-67
2022/01/08 00:04:46;;;;;;;0.60;0.60;;;1.80;99.90;;;;;;4443113;32;20061;-68
2022/01/08 00:07:11;;;;;;;0.50;0.50;;;1.90;99.90;;;;;;4441806;32;20064;-67
2022/01/08 00:09:37;;;;;;;0.40;0.40;;;1.90;99.90;;;;;;4430877;32;20524;-67
2022/01/08 00:12:03;;;;;;;0.40;0.40;;;1.90;99.90;;;;;;4441665;32;20064;-66
2022/01/08 00:14:29;;;;;;;0.30;0.30;;;1.80;99.90;;;;;;4440560;32;20084;-66
2022/01/08 00:16:55;;;;;;;0.50;0.50;;;1.70;99.90;;;;;;4440213;32;20070;-67
2022/01/08 00:19:20;;;;;;;0.50;0.50;;;1.80;99.90;;;;;;4436928;32;20093;-67
2022/01/08 00:21:46;;;;;;;0.57;0.57;;;1.80;99.90;;;;;;4442272;32;20108;-67
2022/01/08 00:24:11;;;;;;;0.30;0.30;;;1.70;99.90;;;;;;4444132;32;20092;-67
2022/01/08 00:26:37;;;;;;;0.57;0.57;;;1.70;99.90;;;;;;4440581;32;20065;-67
2022/01/08 00:29:03;;;;;;;0.45;0.45;;;1.80;99.90;;;;;;4435632;32;20101;-67
2022/01/08 00:31:29;;;;;;;0.70;0.70;;;1.70;99.90;;;;;;4441951;32;20112;-67
2022/01/08 00:33:55;;;;;;;0.57;0.57;;;1.70;99.90;;;;;;4443914;32;20105;-66
2022/01/08 00:36:20;;;;;;;0.37;0.37;;;1.70;99.90;;;;;;4441673;32;20070;-66
2022/01/08 00:38:45;;;;;;;0.98;0.90;;;1.70;99.90;;;;;;4441991;32;20403;-66
2022/01/08 00:41:11;;;;;;;0.70;0.70;;;1.70;99.90;;;;;;4440712;32;20089;-67
2022/01/08 00:43:37;;;;;;;0.57;0.57;;;1.70;99.90;;;;;;4442659;32;20068;-67
2022/01/08 00:46:02;;;;;;;0.40;0.40;;;1.70;99.90;;;;;;4447117;32;20088;-68
2022/01/08 00:48:28;;;;;;;0.88;0.62;;;1.80;99.90;;;;;;4443249;32;20553;-67
2022/01/08 00:50:54;;;;;;;0.40;0.40;;;1.80;99.90;;;;;;4443085;32;20107;-67
2022/01/08 00:53:20;;;;;;;0.30;0.30;;;1.80;99.90;;;;;;4438611;32;20077;-67
2022/01/08 00:55:45;;;;;;;0.50;0.50;;;1.80;99.90;;;;;;4444166;32;20065;-67
2022/01/08 00:58:11;;;;;;;0.30;0.30;;;1.80;99.90;;;;;;4442308;32;20501;-67
2022/01/08 01:00:37;;;;;;;0.50;0.50;;;1.90;99.90;;;;;;4432017;32;20078;-67
2022/01/08 01:03:03;;;;;;;0.60;0.60;;;2.00;99.90;;;;;;4444080;32;20061;-67
2022/01/08 01:05:29;;;;;;;0.77;0.62;;;1.90;99.90;;;;;;4444327;32;20089;-67
2022/01/08 01:07:54;;;;;;;0.40;0.40;;;1.90;99.90;;;;;;4441021;32;20116;-67
2022/01/08 01:10:20;;;;;;;0.40;0.40;;;1.80;99.90;;;;;;4443396;32;20549;-67
2022/01/08 01:12:46;;;;;;;0.50;0.50;;;1.90;99.90;;;;;;4441259;32;20085;-67
2022/01/08 01:15:14;;;;;;;0.50;0.50;;;1.80;99.90;;;;;;4443561;32;20111;-67
2022/01/08 01:17:40;;;;;;;0.70;0.70;;;1.90;99.90;;;;;;4426095;32;20089;-67
2022/01/08 01:20:08;;;;;;;0.40;0.40;;;1.90;99.90;;;;;;4443309;32;20081;-67
2022/01/08 01:22:45;;;;;;;0.45;0.45;;;1.90;99.90;;;;;;4445182;32;20105;-67
2022/01/08 01:25:15;;;;;;;0.52;0.52;;;1.90;99.90;;;;;;4446881;32;20549;-67
2022/01/08 01:30:15;;;;;;;0.40;0.40;;;1.90;99.90;;;;;;4441177;32;20057;-67
2022/01/08 01:47:01;;;;;;;0.40;0.40;;;1.90;99.90;;;;;;4435964;32;20100;-67
2022/01/08 01:49:14;;;;;;;0.60;0.60;;;2.00;99.90;;;;;;4434500;32;20334;-68
2022/01/08 01:51:39;;;;;;;0.40;0.40;;;2.00;99.90;;;;;;4442758;32;20089;-68
2022/01/08 01:54:05;;;;;;;0.40;0.40;;;2.00;99.90;;;;;;4443350;32;20065;-67
2022/01/08 01:56:30;;;;;;;0.60;0.60;;;2.10;99.90;;;;;;4441631;32;20471;-66
2022/01/08 01:58:56;;;;;;;0.55;0.55;;;2.10;99.90;;;;;;4444307;32;20711;-66
2022/01/08 02:01:21;;;;;;;0.30;0.30;;;2.10;99.90;;;;;;4443822;32;20077;-66
2022/01/08 02:03:47;;;;;;;0.30;0.30;;;2.10;99.90;;;;;;4437413;32;20101;-67
2022/01/08 02:06:13;;;;;;;0.45;0.45;;;2.10;99.90;;;;;;4443020;32;20345;-67
2022/01/08 02:08:39;;;;;;;0.50;0.50;;;2.00;99.90;;;;;;4443898;32;20159;-68
2022/01/08 02:11:06;;;;;;;0.30;0.30;;;2.10;99.90;;;;;;4437408;32;20093;-67
2022/01/08 02:13:32;;;;;;;0.40;0.40;;;2.00;99.90;;;;;;4444103;32;20064;-67
2022/01/08 02:16:00;;;;;;;1.52;1.42;;;2.10;99.90;;;;;;4443880;32;20069;-67
2022/01/08 02:18:26;;;;;;;0.62;0.62;;;2.10;99.90;;;;;;4434823;32;20529;-67
2022/01/08 02:20:53;;;;;;;0.50;0.50;;;2.00;99.90;;;;;;4442942;32;20303;-66
2022/01/08 02:23:18;;;;;;;0.40;0.40;;;2.00;99.90;;;;;;4431903;32;20434;-67
2022/01/08 02:25:44;;;;;;;0.43;0.43;;;1.90;99.90;;;;;;4438510;32;20101;-66
2022/01/08 02:28:09;;;;;;;0.32;0.32;;;2.00;99.90;;;;;;4441226;32;20512;-67
2022/01/08 02:30:35;;;;;;;0.98;0.98;;;2.00;99.90;;;;;;4441809;32;20085;-67
2022/01/08 02:33:00;;;;;;;0.55;0.55;;;2.00;99.90;;;;;;4444568;32;20097;-67
2022/01/08 02:35:26;;;;;;;0.40;0.40;;;2.00;99.90;;;;;;4443613;32;20081;-67
2022/01/08 02:37:53;;;;;;;1.05;0.95;;;1.90;99.90;;;;;;4439254;32;20081;-67
2022/01/08 02:40:20;;;;;;;1.30;1.20;;;1.90;99.90;;;;;;4443915;32;20163;-67
2022/01/08 02:42:52;;;;;;;0.32;0.32;;;1.90;99.90;;;;;;4442795;32;20073;-67
2022/01/08 02:45:20;;;;;;;0.65;0.65;;;2.00;99.90;;;;;;4435573;32;20088;-67
2022/01/08 02:47:47;;;;;;;0.43;0.43;;;2.00;99.90;;;;;;4442976;32;20073;-67
2022/01/08 02:50:13;;;;;;;0.73;0.73;;;2.00;99.90;;;;;;4443899;32;20142;-67
2022/01/08 02:52:43;;;;;;;0.40;0.40;;;2.00;99.90;;;;;;4448122;32;20077;-67
2022/01/08 02:55:10;;;;;;;0.85;0.85;;;2.00;99.90;;;;;;4442239;32;20299;-67
2022/01/08 02:57:35;;;;;;;0.47;0.47;;;2.10;99.90;;;;;;4440193;32;20124;-67
2022/01/08 03:00:02;;;;;;;0.40;0.40;;;2.20;99.90;;;;;;4442845;32;20082;-67
2022/01/08 03:02:28;;;;;;;0.37;0.37;;;2.20;99.90;;;;;;4435810;32;20118;-68
2022/01/08 03:04:54;;;;;;;0.50;0.50;;;2.20;99.90;;;;;;4441076;32;20081;-67
2022/01/08 03:07:19;;;;;;;0.62;0.62;;;2.20;99.90;;;;;;4439883;32;20172;-66
2022/01/08 03:09:51;;;;;;;0.40;0.40;;;2.20;99.90;;;;;;4442054;32;20490;-67
2022/01/08 03:12:17;;;;;;;0.60;0.60;;;2.30;99.90;;;;;;4445323;32;20115;-67
2022/01/08 03:14:42;;;;;;;0.55;0.55;;;2.30;99.90;;;;;;4438502;32;20093;-67
2022/01/08 03:17:07;;;;;;;0.40;0.40;;;2.20;99.90;;;;;;4441656;32;20085;-67
2022/01/08 03:19:35;;;;;;;0.43;0.43;;;2.20;99.90;;;;;;4441094;32;20622;-67
2022/01/08 03:22:03;;;;;;;0.40;0.40;;;2.20;99.90;;;;;;4442947;32;20735;-67
2022/01/08 03:24:29;;;;;;;0.55;0.45;;;2.30;99.90;;;;;;4443122;32;20074;-68
2022/01/08 03:26:55;;;;;;;0.40;0.40;;;2.20;99.90;;;;;;4442423;32;20065;-66
2022/01/08 03:29:21;;;;;;;0.45;0.45;;;2.10;99.90;;;;;;4432325;32;20100;-67
2022/01/08 03:31:47;;;;;;;0.30;0.30;;;2.10;99.90;;;;;;4442410;32;20084;-67
2022/01/08 03:34:12;;;;;;;0.45;0.45;;;2.20;99.90;;;;;;4434270;32;20439;-68
2022/01/08 03:36:38;;;;;;;0.45;0.45;;;2.20;99.90;;;;;;4442593;32;20148;-66
2022/01/08 03:39:04;;;;;;;0.40;0.40;;;2.20;99.90;;;;;;4439622;32;20085;-67
2022/01/08 03:41:29;;;;;;;0.40;0.40;;;2.10;99.90;;;;;;4441385;32;20069;-67
2022/01/08 03:43:55;;;;;;;0.40;0.40;;;2.10;99.90;;;;;;4441506;32;20077;-67
2022/01/08 03:46:21;;;;;;;0.57;0.57;;;2.10;99.90;;;;;;4442112;32;20102;-67
2022/01/08 03:49:12;;;;;;;0.50;0.50;;;2.00;99.90;;;;;;4443277;32;20081;-67
2022/01/08 03:51:34;;;;;;;0.50;0.50;;;2.00;99.90;;;;;;4423957;32;20093;-67
2022/01/08 03:54:01;;;;;;;0.40;0.40;;;2.00;99.90;;;;;;4442077;32;20085;-68
2022/01/08 03:56:27;;;;;;;0.55;0.55;;;2.20;99.90;;;;;;4434948;32;20535;-67
2022/01/08 03:58:52;;;;;;;0.45;0.45;;;2.20;99.90;;;;;;4440767;32;20084;-67
2022/01/08 04:01:18;;;;;;;0.32;0.32;;;2.10;99.90;;;;;;4446186;32;20394;-67
2022/01/08 04:03:43;;;;;;;0.40;0.40;;;2.10;99.90;;;;;;4444340;32;20082;-67
2022/01/08 04:06:09;;;;;;;0.40;0.40;;;2.10;99.90;;;;;;4433747;32;20086;-67
2022/01/08 04:08:34;;;;;;;0.40;0.40;;;2.10;99.90;;;;;;4441806;32;20094;-67
2022/01/08 04:11:01;;;;;;;0.40;0.40;;;2.20;99.90;;;;;;4442682;32;20081;-66
2022/01/08 04:13:30;;;;;;;0.40;0.40;;;2.10;99.90;;;;;;4440406;32;20360;-68
2022/01/08 04:16:00;;;;;;;0.50;0.50;;;2.20;99.90;;;;;;4434212;32;20076;-67
2022/01/08 04:18:27;;;;;;;0.65;0.65;;;2.20;99.90;;;;;;4443386;32;20141;-66
2022/01/08 04:22:09;;;;;;;0.40;0.40;;;2.30;99.90;;;;;;4446955;32;20076;-66
2022/01/08 04:23:38;;;;;;;0.30;0.30;;;2.20;99.90;;;;;;4427057;32;20081;-67
2022/01/08 04:26:04;;;;;;;0.47;0.47;;;2.20;99.90;;;;;;4446828;32;20060;-67
2022/01/08 04:28:29;;;;;;;0.70;0.45;;;2.20;99.90;;;;;;4444228;32;20414;-68
2022/01/08 04:30:55;;;;;;;0.55;0.55;;;2.10;99.90;;;;;;4444436;32;20101;-67
2022/01/08 04:33:20;;;;;;;0.40;0.40;;;2.20;99.90;;;;;;4440543;32;109524;-67
2022/01/08 04:35:46;;;;;;;0.40;0.40;;;2.20;99.90;;;;;;4444525;32;20053;-67
2022/01/08 04:38:12;;;;;;;0.50;0.50;;;2.20;99.90;;;;;;4437706;32;20080;-67
2022/01/08 04:40:38;;;;;;;0.70;0.70;;;2.20;99.90;;;;;;4446993;32;20588;-68
2022/01/08 04:43:03;;;;;;;0.50;0.50;;;2.30;99.90;;;;;;4437909;32;20140;-67
2022/01/08 04:45:30;;;;;;;0.50;0.50;;;2.20;99.90;;;;;;4445804;32;20089;-66
2022/01/08 04:47:57;;;;;;;1.48;0.80;;;2.20;99.90;;;;;;4434419;32;20069;-67
2022/01/08 04:50:24;;;;;;;0.60;0.60;;;2.20;99.90;;;;;;4440135;32;20110;-67
2022/01/08 04:52:49;;;;;;;0.40;0.40;;;2.20;99.90;;;;;;4442736;32;20466;-67
2022/01/08 04:55:15;;;;;;;0.65;0.65;;;2.20;99.90;;;;;;4443593;32;20140;-67
2022/01/08 04:57:40;;;;;;;0.50;0.50;;;2.20;99.90;;;;;;4443179;32;20114;-67
2022/01/08 05:00:07;;;;;;;0.45;0.45;;;2.20;99.90;;;;;;4443359;32;20068;-66
2022/01/08 05:02:32;;;;;;;0.40;0.40;;;2.20;99.90;;;;;;4443893;32;20544;-67
2022/01/08 05:04:58;;;;;;;1.00;0.80;;;2.20;99.90;;;;;;4443735;32;20057;-67
2022/01/08 05:07:23;;;;;;;0.40;0.40;;;2.20;99.90;;;;;;4444106;32;20056;-68
2022/01/08 05:09:49;;;;;;;0.30;0.30;;;2.20;99.90;;;;;;4445899;32;20081;-67
2022/01/08 05:12:14;;;;;;;0.40;0.40;;;2.30;99.90;;;;;;4443366;32;20065;-67
2022/01/08 05:14:41;;;;;;;0.80;0.80;;;2.20;99.90;;;;;;4443365;32;20517;-68
2022/01/08 05:17:07;;;;;;;0.52;0.50;;;2.20;99.90;;;;;;4443090;32;20415;-68
2022/01/08 05:19:44;;;;;;;0.50;0.50;;;2.10;99.90;;;;;;4445862;32;20066;-68
2022/01/08 05:22:18;;;;;;;0.30;0.30;;;2.10;99.90;;;;;;4443660;32;20101;-68
2022/01/08 05:24:44;;;;;;;0.50;0.50;;;2.10;99.90;;;;;;4442785;32;20124;-67
2022/01/08 05:27:15;;;;;;;2.35;0.75;;;2.10;99.90;;;;;;4443446;32;20081;-66
2022/01/08 05:29:41;;;;;;;0.68;0.68;;;2.10;99.90;;;;;;4437027;32;20081;-67
2022/01/08 05:32:07;;;;;;;0.40;0.40;;;2.10;99.90;;;;;;4448056;32;20430;-67
2022/01/08 05:34:33;;;;;;;0.30;0.30;;;2.10;99.90;;;;;;4445878;32;20081;-67
2022/01/08 05:36:59;;;;;;;0.60;0.60;;;2.00;99.90;;;;;;4435454;32;20069;-67
2022/01/08 05:39:25;;;;;;;0.50;0.50;;;2.00;99.90;;;;;;4444968;32;20076;-67
2022/01/08 05:41:50;;;;;;;0.37;0.37;;;2.10;99.90;;;;;;4441863;32;20458;-67
2022/01/08 05:44:16;;;;;;;0.40;0.40;;;2.10;99.90;;;;;;4443956;32;20077;-67
2022/01/08 05:46:44;;;;;;;0.60;0.60;;;2.10;99.90;;;;;;4443667;32;20430;-68
2022/01/08 05:49:12;;;;;;;0.40;0.40;;;2.20;99.90;;;;;;4441159;32;20064;-67
2022/01/08 05:51:37;;;;;;;0.57;0.40;;;2.10;99.90;;;;;;4442038;32;20452;-67
2022/01/08 05:54:03;;;;;;;0.40;0.40;;;2.00;99.90;;;;;;4441920;32;20123;-68
2022/01/08 05:56:28;;;;;;;0.30;0.30;;;2.00;99.90;;;;;;4443515;32;20482;-67
2022/01/08 05:58:53;;;;;;;0.40;0.40;;;1.90;99.90;;;;;;4442405;32;20152;-67
2022/01/08 06:01:20;;;;;;;0.43;0.43;;;2.00;99.90;;;;;;4440915;32;20070;-66
2022/01/08 06:03:45;;;;;;;0.45;0.45;;;2.00;99.90;;;;;;4437906;32;20571;-68
2022/01/08 06:06:11;;;;;;;0.30;0.30;;;2.00;99.90;;;;;;4440867;32;20064;-67
2022/01/08 06:08:36;;;;;;;0.30;0.30;;;2.00;99.90;;;;;;4442364;32;20061;-67
2022/01/08 06:11:02;;;;;;;0.32;0.32;;;1.90;99.90;;;;;;4443123;32;20112;-67
2022/01/08 06:13:27;;;;;;;0.30;0.30;;;2.00;99.90;;;;;;4434508;32;20069;-66
2022/01/08 06:15:53;;;;;;;0.43;0.43;;;2.10;99.90;;;;;;4448157;32;20456;-66
2022/01/08 06:18:18;;;;;;;0.65;0.65;;;2.20;99.90;;;;;;4445452;32;20088;-67
2022/01/08 06:20:44;;;;;;;0.40;0.40;;;2.30;99.90;;;;;;4441613;32;20521;-67
2022/01/08 06:23:09;;;;;;;3.75;1.30;;;2.30;99.90;;;;;;4444061;32;20366;-67
2022/01/08 06:25:35;;;;;;;0.93;0.85;;;2.30;99.90;;;;;;4443401;32;20074;-67
2022/01/08 06:28:00;;;;;;;0.40;0.40;;;2.20;99.90;;;;;;4444956;32;20105;-66
2022/01/08 06:30:26;;;;;;;0.40;0.40;;;2.20;99.90;;;;;;4442191;32;20073;-67
2022/01/08 06:32:51;;;;;;;0.30;0.30;;;2.10;99.90;;;;;;4443175;32;20086;-67
2022/01/08 06:35:16;;;;;;;0.40;0.40;;;2.10;99.90;;;;;;4443959;32;20474;-67
2022/01/08 06:37:42;;;;;;;1.12;0.73;;;2.20;99.90;;;;;;4443528;32;20089;-67
2022/01/08 06:40:09;;;;;;;1.12;0.95;;;2.10;99.90;;;;;;4443047;32;20069;-67
2022/01/08 06:42:34;;;;;;;0.50;0.50;;;2.00;99.90;;;;;;4444297;32;20128;-67
2022/01/08 06:45:00;;;;;;;0.40;0.40;;;2.10;99.90;;;;;;4430615;32;20115;-68
2022/01/08 06:47:25;;;;;;;0.43;0.43;;;2.00;99.90;;;;;;4444645;32;20069;-67
2022/01/08 06:49:51;;;;;;;0.40;0.40;;;2.00;99.90;;;;;;4442767;32;20081;-67
2022/01/08 06:52:16;;;;;;;0.40;0.40;;;2.00;99.90;;;;;;4442466;32;20094;-67
2022/01/08 06:54:42;;;;;;;0.40;0.40;;;2.00;99.90;;;;;;4441122;32;20056;-67
2022/01/08 06:57:07;;;;;;;1.65;1.37;;;2.00;99.90;;;;;;4441230;32;20469;-67
2022/01/08 06:59:33;;;;;;;0.40;0.40;;;2.10;99.90;;;;;;4439764;32;20120;-67
2022/01/08 07:01:59;;;;;;;0.40;0.40;;;2.00;99.90;;;;;;4440110;32;20124;-67
2022/01/08 07:04:25;;;;;;;0.68;0.68;;;1.90;99.90;;;;;;4441636;32;20123;-67
2022/01/08 07:06:50;;;;;;;0.40;0.40;;;2.00;99.90;;;;;;4441871;32;20077;-67
2022/01/08 07:09:16;;;;;;;0.50;0.50;;;1.90;99.90;;;;;;4441775;32;20078;-66
2022/01/08 07:11:41;;;;;;;0.50;0.50;;;2.00;99.90;;;;;;4442668;32;20461;-68
2022/01/08 07:14:07;;;;;;;0.50;0.50;;;1.90;99.90;;;;;;4443476;32;20110;-67
2022/01/08 07:16:32;;;;;;;0.50;0.50;;;2.00;99.90;;;;;;4442661;32;20077;-67
2022/01/08 07:18:58;;;;;;;0.47;0.47;;;2.00;99.90;;;;;;4440631;32;20420;-67
2022/01/08 07:21:23;;;;;;;1.95;1.15;;;1.90;99.90;;;;;;4441868;32;20100;-68
2022/01/08 07:23:49;;;;;;;0.52;0.52;;;1.90;99.90;;;;;;4442220;32;20076;-67
2022/01/08 07:26:14;;;;;;;0.68;0.57;;;1.90;99.90;;;;;;4442174;32;20561;-67
2022/01/08 07:28:40;;;;;;;0.40;0.40;;;2.00;99.90;;;;;;4441403;32;20069;-67
2022/01/08 07:31:06;;;;;;;0.40;0.40;;;2.00;99.90;;;;;;4442289;32;20058;-67
2022/01/08 07:33:32;;;;;;;0.47;0.47;;;1.90;99.90;;;;;;4441302;32;20073;-67
2022/01/08 07:35:57;;;;;;;0.55;0.55;;;1.90;99.90;;;;;;4441860;32;20101;-66
2022/01/08 07:38:22;;;;;;;0.40;0.40;;;1.90;99.90;;;;;;4441709;32;20074;-67
2022/01/08 07:40:51;;;;;;;0.62;0.62;;;2.00;99.90;;;;;;4442657;32;20065;-67
2022/01/08 07:43:18;;;;;;;0.50;0.50;;;1.90;99.90;;;;;;4440882;32;20525;-67
2022/01/08 07:45:43;;;;;;;0.40;0.40;;;2.00;99.90;;;;;;4442265;32;20073;-67
2022/01/08 07:48:09;;;;;;;12.20;3.05;;;1.90;99.90;;;;;;4443156;32;20443;-67
2022/01/08 07:50:34;;;;;;;0.40;0.40;;;1.70;99.90;;;;;;4441113;32;20080;-67
2022/01/08 07:53:00;;;;;;;0.40;0.40;;;1.70;99.90;;;;;;4441194;32;20084;-67
2022/01/08 07:55:25;;;;;;;0.45;0.45;;;1.80;99.90;;;;;;4439766;32;20222;-67
2022/01/08 07:57:51;;;;;;;0.50;0.50;;;1.80;99.90;;;;;;4441456;32;20075;-67
2022/01/08 08:00:16;;;;;;;0.77;0.77;;;1.90;99.90;;;;;;4442819;32;20093;-67
2022/01/08 08:02:42;;;;;;;0.80;0.80;;;1.90;99.90;;;;;;4441241;32;20266;-66
2022/01/08 08:05:08;;;;;;;2.25;0.80;;;1.80;99.90;;;;;;4441519;32;20072;-67
2022/01/08 08:07:37;;;;;;;4.50;2.03;;;1.90;99.90;;;;;;4440848;32;20056;-67
2022/01/08 08:10:05;;;;;;;0.40;0.40;;;2.00;99.90;;;;;;4442618;32;20060;-67
2022/01/08 08:12:30;;;;;;;0.40;0.40;;;2.00;99.90;;;;;;4432094;32;20074;-66
2022/01/08 08:14:56;;;;;;;0.50;0.50;;;2.00;99.90;;;;;;4443551;32;20062;-66
2022/01/08 08:17:21;;;;;;;2.60;1.55;;;2.10;99.90;;;;;;4442302;32;20057;-66
2022/01/08 08:19:47;;;;;;;1.15;0.93;;;2.00;99.90;;;;;;4442893;32;20085;-67
2022/01/08 08:22:12;;;;;;;0.98;0.70;;;1.90;99.90;;;;;;4431823;32;20101;-67
2022/01/08 08:24:38;;;;;;;0.43;0.43;;;1.90;99.90;;;;;;4440795;32;20153;-67
2022/01/08 08:27:04;;;;;;;0.50;0.50;;;2.00;99.90;;;;;;4439438;32;20702;-67
2022/01/08 08:29:29;;;;;;;0.45;0.45;;;2.00;99.90;;;;;;4439159;32;20544;-66
2022/01/08 08:31:54;;;;;;;0.32;0.32;;;2.10;99.90;;;;;;4441868;32;20582;-67
2022/01/08 08:34:20;;;;;;;0.52;0.52;;;2.00;99.90;;;;;;4441383;32;20089;-66
2022/01/08 08:36:45;;;;;;;0.43;0.43;;;2.00;99.90;;;;;;4441161;32;20112;-66
2022/01/08 08:39:11;;;;;;;0.45;0.45;;;2.10;99.90;;;;;;4442055;32;20505;-66
2022/01/08 08:41:36;;;;;;;0.32;0.32;;;2.10;99.90;;;;;;4440758;32;20056;-66
2022/01/08 08:44:02;;;;;;;0.50;0.50;;;2.00;99.90;;;;;;4441302;32;20068;-66
2022/01/08 08:46:27;;;;;;;0.62;0.62;;;2.10;99.90;;;;;;4442113;32;20084;-67
2022/01/08 08:48:53;;;;;;;0.30;0.30;;;2.10;99.90;;;;;;4441632;32;20487;-67
2022/01/08 08:51:19;;;;;;;1.02;0.93;;;2.00;99.90;;;;;;4440919;32;20093;-67
2022/01/08 08:53:44;;;;;;;0.80;0.60;;;1.90;99.90;;;;;;4442718;32;20060;-67
2022/01/08 08:56:09;;;;;;;0.37;0.37;;;1.80;99.90;;;;;;4443524;32;20517;-67
2022/01/08 08:58:35;;;;;;;2.28;0.85;;;1.80;99.90;;;;;;4439559;32;20085;-66
2022/01/08 09:01:00;;;;;;;0.43;0.43;;;1.80;99.90;;;;;;4442594;32;20057;-65
2022/01/08 09:03:29;;;;;;;0.47;0.37;;;2.00;99.90;;;;;;4441061;32;20445;-67
2022/01/08 09:05:54;;;;;;;0.52;0.52;;;2.10;99.90;;;;;;4445265;32;20127;-67
2022/01/08 09:08:20;;;;;;;0.40;0.40;;;2.00;99.90;;;;;;4443948;32;20695;-66
2022/01/08 09:10:45;;;;;;;0.30;0.30;;;2.10;99.90;;;;;;4443447;32;20384;-67
2022/01/08 09:13:11;;;;;;;0.50;0.50;;;1.90;99.90;;;;;;4433973;32;20074;-66
2022/01/08 09:15:41;;;;;;;0.40;0.40;;;2.00;99.90;;;;;;4444433;32;20435;-65
2022/01/08 09:18:08;;;;;;;1.27;1.15;;;1.90;99.90;;;;;;4443029;32;20085;-66
2022/01/08 09:20:33;;;;;;;0.40;0.40;;;1.80;99.90;;;;;;4439877;32;20594;-66
2022/01/08 09:22:59;;;;;;;0.47;0.47;;;1.80;99.90;;;;;;4441570;32;20069;-66
2022/01/08 09:25:25;;;;;;;0.93;0.90;;;1.70;99.90;;;;;;4437689;32;20293;-67
2022/01/08 09:27:51;;;;;;;0.40;0.40;;;1.90;99.90;;;;;;4439985;32;20145;-67
2022/01/08 09:30:16;;;;;;;0.73;0.73;;;1.90;99.90;;;;;;4442380;32;20123;-67
2022/01/08 09:32:45;;;;;;;0.50;0.50;;;2.00;99.90;;;;;;4443182;32;20500;-67
2022/01/08 09:35:12;;;;;;;0.40;0.40;;;2.10;99.90;;;;;;4443842;32;20085;-67
2022/01/08 09:37:39;;;;;;;0.30;0.30;;;2.10;99.90;;;;;;4444043;32;20085;-67
2022/01/08 09:40:08;;;;;;;1.25;0.90;;;2.20;99.90;;;;;;4446139;32;20057;-67
2022/01/08 09:42:34;;;;;;;0.30;0.30;;;2.20;99.90;;;;;;4444522;32;20512;-66
2022/01/08 09:45:00;;;;;;;1.65;1.12;;;2.30;99.90;;;;;;4443601;32;20100;-66
2022/01/08 09:47:25;;;;;;;0.60;0.60;;;2.30;99.90;;;;;;4443884;32;20069;-67
2022/01/08 09:49:50;;;;;;;0.75;0.75;;;2.30;99.90;;;;;;4442769;32;20093;-66
2022/01/08 09:52:16;;;;;;;0.40;0.40;;;2.40;99.90;;;;;;4444296;32;20160;-66
2022/01/08 09:54:42;;;;;;;0.40;0.40;;;2.40;99.90;;;;;;4443091;32;20119;-67
2022/01/08 09:57:08;;;;;;;2.05;1.08;;;2.40;99.90;;;;;;4441007;32;20093;-66
2022/01/08 09:59:34;;;;;;;0.68;0.68;;;2.50;99.90;;;;;;4443457;32;20086;-66
2022/01/08 10:02:01;;;;;;;0.43;0.43;;;2.50;99.90;;;;;;4443160;32;20423;-66
2022/01/08 10:04:30;;;;;;;1.12;0.65;;;2.50;99.90;;;;;;4438042;32;20061;-66
2022/01/08 10:07:14;;;;;;;0.40;0.40;;;2.30;99.90;;;;;;4444295;32;20062;-66
2022/01/08 10:09:59;;;;;;;0.40;0.40;;;2.30;99.90;;;;;;4431529;32;20117;-67
2022/01/08 10:12:53;;;;;;;0.37;0.37;;;2.30;99.90;;;;;;4441432;32;20127;-66
2022/01/08 10:17:38;;;;;;;0.98;0.90;;;2.30;99.90;;;;;;4435326;32;20549;-66
2022/01/08 10:18:26;;;;;;;0.40;0.40;;;2.40;99.90;;;;;;4434485;32;20526;-67
2022/01/08 10:20:55;;;;;;;0.40;0.40;;;2.30;99.90;;;;;;4434881;32;20754;-68
2022/01/08 10:23:23;;;;;;;0.50;0.50;;;2.40;99.90;;;;;;4433853;32;20133;-67
2022/01/08 10:26:06;;;;;;;0.40;0.40;;;2.30;99.90;;;;;;4433811;32;20104;-66
2022/01/08 10:28:35;;;;;;;0.50;0.50;;;2.20;99.90;;;;;;4442031;32;20041;-67
2022/01/08 10:31:14;;;;;;;0.88;0.88;;;2.30;99.90;;;;;;4442996;32;21276;-67
2022/01/08 10:33:41;;;;;;;0.50;0.50;;;2.30;99.90;;;;;;4435969;32;20104;-67
2022/01/08 10:36:07;;;;;;;0.43;0.43;;;2.20;99.90;;;;;;4443652;32;20056;-66
2022/01/08 10:38:32;;;;;;;0.57;0.57;;;2.30;99.90;;;;;;4441695;32;20128;-67
2022/01/08 10:40:59;;;;;;;0.65;0.65;;;2.20;99.90;;;;;;4442696;32;20073;-67
2022/01/08 10:43:27;;;;;;;0.40;0.40;;;2.30;99.90;;;;;;4444583;32;20537;-66
2022/01/08 10:45:55;;;;;;;0.40;0.40;;;2.30;99.90;;;;;;4433788;32;20081;-67
2022/01/08 10:48:26;;;;;;;0.43;0.43;;;2.40;99.90;;;;;;4442524;32;20128;-67
2022/01/08 10:50:51;;;;;;;0.40;0.40;;;2.50;99.90;;;;;;4440863;32;20081;-66
2022/01/08 10:53:17;;;;;;;0.50;0.50;;;2.60;99.90;;;;;;4442500;32;20113;-66
2022/01/08 10:55:42;;;;;;;1.65;0.93;;;2.70;99.90;;;;;;4434635;32;20096;-67
2022/01/08 10:58:08;;;;;;;1.98;0.73;;;2.90;99.90;;;;;;4446721;32;20065;-67
2022/01/08 11:00:33;;;;;;;0.70;0.70;;;2.90;99.90;;;;;;4442537;32;20123;-67
2022/01/08 11:02:59;;;;;;;0.50;0.50;;;3.00;99.90;;;;;;4443490;32;20599;-67
2022/01/08 11:05:25;;;;;;;0.30;0.30;;;3.00;99.90;;;;;;4434924;32;20057;-67
2022/01/08 11:07:51;;;;;;;0.50;0.50;;;3.10;99.90;;;;;;4444827;32;20558;-67
2022/01/08 11:10:18;;;;;;;0.47;0.47;;;3.20;99.90;;;;;;4430712;32;20113;-67
2022/01/08 11:12:46;;;;;;;2.50;1.30;;;3.30;99.90;;;;;;4439123;32;20094;-68
2022/01/08 11:17:45;;;;;;;0.50;0.50;;;3.50;99.90;;;;;;4442600;32;20679;-67
2022/01/08 11:20:13;;;;;;;0.50;0.50;;;3.60;99.90;;;;;;4429040;32;20061;-67
2022/01/08 11:22:42;;;;;;;0.70;0.60;;;3.80;99.90;;;;;;4440872;32;20080;-66
2022/01/08 11:25:12;;;;;;;1.00;0.80;;;3.90;99.90;;;;;;4442085;32;20096;-67
2022/01/08 11:28:00;;;;;;;1.02;0.75;;;4.00;99.90;;;;;;4441594;32;20069;-68
2022/01/08 11:30:29;;;;;;;1.50;1.05;;;4.10;99.90;;;;;;4442371;32;20089;-68
2022/01/08 11:32:58;;;;;;;0.50;0.50;;;4.30;99.90;;;;;;4443779;32;20073;-66
2022/01/08 11:35:25;;;;;;;41.53;1.55;;;4.50;99.90;;;;;;4441988;32;20215;-67
2022/01/08 11:37:54;;;;;;;2.97;1.27;;;4.60;99.90;;;;;;4443586;32;20069;-67
2022/01/08 11:40:21;;;;;;;1.90;1.12;;;4.50;99.90;;;;;;4443076;32;20520;-67
2022/01/08 11:42:47;;;;;;;0.37;0.37;;;4.50;99.90;;;;;;4443304;32;20085;-69
2022/01/08 11:45:17;;;;;;;3.60;1.35;;;4.20;99.90;;;;;;4433551;32;20061;-67
2022/01/08 11:47:47;;;;;;;42.53;1.00;;;4.10;99.90;;;;;;4443472;32;20065;-67
2022/01/08 11:50:17;;;;;;;0.85;0.47;;;4.00;99.90;;;;;;4444451;32;20098;-67
2022/01/08 11:52:43;;;;;;;1.48;0.98;;;4.10;99.90;;;;;;4437588;32;20056;-67
2022/01/08 11:55:09;;;;;;;0.75;0.75;;;4.20;99.90;;;;;;4442391;32;20100;-67
2022/01/08 11:57:35;;;;;;;0.37;0.37;;;4.30;99.90;;;;;;4433549;32;20599;-67
2022/01/08 12:00:02;;;;;;;0.60;0.60;;;4.20;99.90;;;;;;4436951;32;20061;-67
2022/01/08 12:02:34;;;;;;;0.40;0.40;;;4.20;99.90;;;;;;4442203;32;20578;-67
2022/01/08 12:05:00;;;;;;;0.50;0.50;;;4.10;99.90;;;;;;4441225;32;20418;-67
2022/01/08 12:07:34;;;;;;;6.00;1.62;;;4.00;99.90;;;;;;4444669;32;20352;-67
2022/01/08 12:10:18;;;;;;;0.43;0.43;;;4.00;99.90;;;;;;4442227;32;20073;-67
2022/01/08 12:12:48;;;;;;;0.30;0.30;;;3.90;99.90;;;;;;4432926;32;20625;-67
2022/01/08 12:15:14;;;;;;;;;;;4.00;99.90;;;;;;4442492;32;20060;-67
2022/01/08 12:17:57;;;;;;;0.30;0.30;;;3.90;99.90;;;;;;4430155;32;20449;-67
2022/01/08 12:20:44;;;;;;;0.30;0.30;;;3.80;99.90;;;;;;4441245;32;20069;-67
2022/01/08 12:23:31;;;;;;;0.50;0.50;;;3.80;99.90;;;;;;4434023;32;20057;-67
2022/01/08 12:25:59;;;;;;;1.25;0.70;;;3.70;99.90;;;;;;4433790;32;20089;-67
2022/01/08 12:28:50;;;;;;;0.50;0.50;;;3.80;99.90;;;;;;4441781;32;20080;-68
2022/01/08 12:31:28;;;;;;;0.45;0.45;;;3.80;99.90;;;;;;4434127;32;20173;-67
2022/01/08 12:34:18;;;;;;;0.40;0.40;;;4.30;99.90;;;;;;4441415;32;20128;-68
2022/01/08 12:37:10;;;;;;;0.40;0.40;;;5.00;99.90;;;;;;4421781;32;20085;-68
2022/01/08 12:39:47;;;;;;;0.30;0.30;;;5.70;99.90;;;;;;4438145;32;20080;-69
2022/01/08 12:42:23;;;;;;;0.50;0.50;;;6.10;99.90;;;;;;4442796;32;20065;-68
2022/01/08 12:45:10;;;;;;;0.52;0.52;;;6.30;99.90;;;;;;4443860;32;20049;-68
2022/01/08 12:47:56;;;;;;;1.83;1.02;;;6.80;99.90;;;;;;4426492;32;20167;-68
2022/01/08 12:50:35;;;;;;;0.35;0.35;;;6.70;99.90;;;;;;4440068;32;20145;-67
2022/01/08 12:53:06;;;;;;;0.45;0.45;;;6.60;99.90;;;;;;4445281;32;20089;-68
2022/01/08 12:55:34;;;;;;;0.45;0.30;;;7.00;99.90;;;;;;4441942;32;20112;-68
2022/01/08 12:58:01;;;;;;;0.32;0.32;;;7.30;99.90;;;;;;4444426;32;20525;-67
2022/01/08 13:00:27;;;;;;;0.50;0.50;;;7.30;99.90;;;;;;4443828;32;20579;-68
2022/01/08 13:02:53;;;;;;;0.47;0.47;;;7.10;99.90;;;;;;4439518;32;20082;-67
2022/01/08 13:05:19;;;;;;;0.50;0.50;;;7.20;99.90;;;;;;4434489;32;20054;-68
2022/01/08 13:07:52;;;;;;;0.50;0.50;;;7.00;99.90;;;;;;4442882;32;20406;-68
2022/01/08 13:10:19;;;;;;;0.65;0.52;;;7.10;99.90;;;;;;4439634;32;20064;-68
2022/01/08 13:13:01;;;;;;;0.40;0.40;;;7.00;99.90;;;;;;4443661;32;20101;-68
2022/01/08 13:15:31;;;;;;;1.27;0.70;;;6.80;99.90;;;;;;4438441;32;20101;-67
2022/01/08 13:18:16;;;;;;;3.60;0.52;;;6.40;99.90;;;;;;4443123;32;20123;-67
2022/01/08 13:20:42;;;;;;;0.50;0.50;;;5.70;99.90;;;;;;4444826;32;20057;-67